This is the latest recevied weather packets stored in our database for station/object HJ3GNC-17. If no packets are shown the sender has not sent any weather packets the latest 10 day(s).
| Time | Temp. | Humidity | Pressure | Rain* | Wind** | Luminosity | Snow |
|---|---|---|---|---|---|---|---|
| 1777506472 | 11.67° C | 81% | 1014 hPa | 0 mm | - | - | - |
| 1777504570 | 12.22° C | 76% | 1013 hPa | 0 mm | - | - | - |
| 1777503627 | 12.22° C | 74% | 1013 hPa | 0 mm | - | - | - |
| 1777502685 | 12.22° C | 74% | 1012 hPa | 0 mm | - | - | - |
| 1777501742 | 12.78° C | 74% | 1011 hPa | 0 mm | - | - | - |
| 1777500799 | 12.78° C | 74% | 1011 hPa | 0 mm | - | - | - |
| 1777499855 | 12.78° C | 74% | 1011 hPa | 0 mm | - | - | - |
| 1777498898 | 12.78° C | 74% | 1011 hPa | 0 mm | - | - | - |
| 1777497953 | 12.78° C | 74% | 1011 hPa | 0 mm | - | - | - |
| 1777497004 | 12.78° C | 73% | 1011 hPa | 0 mm | - | - | - |
| 1777496064 | 12.78° C | 72% | 1011 hPa | 0 mm | - | - | - |
| 1777495120 | 12.78° C | 72% | 1011 hPa | 0 mm | - | - | - |
| 1777494177 | 12.78° C | 72% | 1011 hPa | 0 mm | - | - | - |
| 1777493234 | 13.33° C | 72% | 1011 hPa | 0 mm | - | - | - |
| 1777492294 | 13.33° C | 72% | 1011 hPa | 0 mm | - | - | - |
| 1777491348 | 13.33° C | 72% | 1012 hPa | 0 mm | - | - | - |
| 1777490407 | 13.33° C | 72% | 1012 hPa | 0 mm | - | - | - |
| 1777489462 | 13.89° C | 72% | 1012 hPa | 0 mm | - | - | - |
| 1777488518 | 13.89° C | 72% | 1012 hPa | 0 mm | - | - | - |
| 1777487554 | 10° C | 92% | 1013 hPa | 0 mm | - | - | - |
| 1777486608 | 10.56° C | 92% | 1014 hPa | 0 mm | - | - | - |
| 1777485668 | 10.56° C | 92% | 1014 hPa | 0 mm | - | - | - |
| 1777484729 | 8.89° C | 95% | 1015 hPa | 0 mm | - | - | - |
| 1777483775 | 9.44° C | 95% | 1015 hPa | 0 mm | - | - | - |
| 1777482828 | 9.44° C | 95% | 1015 hPa | 0 mm | - | - | - |
* Rain latest hour (hover to see other rain measurements)
** Current wind speed in m/s (hover to see current wind gust speed)